sensor_id;sensor_type;location;lat;lon;timestamp;pressure;altitude;pressure_sealevel;temperature;humidity
7075;BME280;3578;51.568;6.932;2023-05-21T00:01:22;54328.44;;;-144.14;93.05
7075;BME280;3578;51.568;6.932;2023-05-21T00:03:50;54300.38;;;-144.14;92.84
7075;BME280;3578;51.568;6.932;2023-05-21T00:06:18;54280.34;;;-144.14;93.34
7075;BME280;3578;51.568;6.932;2023-05-21T00:08:45;54308.41;;;-144.14;93.20
7075;BME280;3578;51.568;6.932;2023-05-21T00:11:12;54316.41;;;-144.14;92.57
7075;BME280;3578;51.568;6.932;2023-05-21T00:13:39;54292.38;;;-144.14;92.93
7075;BME280;3578;51.568;6.932;2023-05-21T00:16:06;54252.25;;;-144.14;92.88
7075;BME280;3578;51.568;6.932;2023-05-21T00:18:35;54272.31;;;-144.14;93.00
7075;BME280;3578;51.568;6.932;2023-05-21T00:21:04;54262.28;;;-144.14;92.97
7075;BME280;3578;51.568;6.932;2023-05-21T00:23:32;54280.34;;;-144.14;92.87
7075;BME280;3578;51.568;6.932;2023-05-21T00:26:02;54260.28;;;-144.14;93.28
7075;BME280;3578;51.568;6.932;2023-05-21T00:28:29;54240.25;;;-144.14;93.24
7075;BME280;3578;51.568;6.932;2023-05-21T00:30:56;54264.28;;;-144.14;93.17
7075;BME280;3578;51.568;6.932;2023-05-21T00:33:23;54220.19;;;-144.14;93.26
7075;BME280;3578;51.568;6.932;2023-05-21T00:35:51;54240.25;;;-144.14;93.04
7075;BME280;3578;51.568;6.932;2023-05-21T00:38:18;54242.25;;;-144.14;92.71
7075;BME280;3578;51.568;6.932;2023-05-21T00:40:47;54244.25;;;-144.14;92.37
7075;BME280;3578;51.568;6.932;2023-05-21T00:43:14;54234.22;;;-144.14;92.75
7075;BME280;3578;51.568;6.932;2023-05-21T00:45:41;54210.16;;;-144.14;93.44
7075;BME280;3578;51.568;6.932;2023-05-21T00:48:11;54204.16;;;-144.14;93.34
7075;BME280;3578;51.568;6.932;2023-05-21T00:50:39;54206.16;;;-144.14;93.71
7075;BME280;3578;51.568;6.932;2023-05-21T00:53:07;54196.13;;;-144.14;93.92
7075;BME280;3578;51.568;6.932;2023-05-21T00:55:35;54170.06;;;-144.14;94.04
7075;BME280;3578;51.568;6.932;2023-05-21T00:58:04;54188.13;;;-144.14;93.61
7075;BME280;3578;51.568;6.932;2023-05-21T01:00:33;54184.09;;;-144.14;93.31
7075;BME280;3578;51.568;6.932;2023-05-21T01:03:00;54144.00;;;-144.14;93.79
7075;BME280;3578;51.568;6.932;2023-05-21T01:05:28;54184.09;;;-144.14;93.71
7075;BME280;3578;51.568;6.932;2023-05-21T01:07:55;54115.94;;;-144.14;94.19
7075;BME280;3578;51.568;6.932;2023-05-21T01:10:24;54125.97;;;-144.14;93.78
7075;BME280;3578;51.568;6.932;2023-05-21T01:12:52;54172.09;;;-144.14;93.87
7075;BME280;3578;51.568;6.932;2023-05-21T01:15:22;54134.00;;;-144.14;94.46
7075;BME280;3578;51.568;6.932;2023-05-21T01:17:50;54075.84;;;-144.14;95.49
7075;BME280;3578;51.568;6.932;2023-05-21T01:20:19;54051.81;;;-144.14;95.31
7075;BME280;3578;51.568;6.932;2023-05-21T01:22:52;54069.84;;;-144.14;94.78
7075;BME280;3578;51.568;6.932;2023-05-21T01:25:19;54109.94;;;-144.14;95.12
7075;BME280;3578;51.568;6.932;2023-05-21T01:27:47;53991.66;;;-144.14;96.01
7075;BME280;3578;51.568;6.932;2023-05-21T01:30:15;54051.81;;;-144.14;95.63
7075;BME280;3578;51.568;6.932;2023-05-21T01:32:49;54045.78;;;-144.14;96.14
7075;BME280;3578;51.568;6.932;2023-05-21T01:35:22;53923.50;;;-144.14;97.38
7075;BME280;3578;51.568;6.932;2023-05-21T01:37:59;53937.53;;;-144.14;97.54
7075;BME280;3578;51.568;6.932;2023-05-21T01:40:34;53947.56;;;-144.14;96.79
7075;BME280;3578;51.568;6.932;2023-05-21T01:43:03;53955.59;;;-144.14;96.91
7075;BME280;3578;51.568;6.932;2023-05-21T01:45:31;53915.50;;;-144.14;96.76
7075;BME280;3578;51.568;6.932;2023-05-21T01:47:59;53911.50;;;-144.14;96.70
7075;BME280;3578;51.568;6.932;2023-05-21T01:50:26;53877.41;;;-144.14;97.35
7075;BME280;3578;51.568;6.932;2023-05-21T01:52:55;53853.34;;;-144.14;97.94
7075;BME280;3578;51.568;6.932;2023-05-21T01:55:23;53839.31;;;-144.14;98.13
7075;BME280;3578;51.568;6.932;2023-05-21T01:57:51;53771.19;;;-144.14;98.21
7075;BME280;3578;51.568;6.932;2023-05-21T02:00:18;53745.13;;;-144.14;98.32
7075;BME280;3578;51.568;6.932;2023-05-21T02:02:46;53763.16;;;-144.14;98.26
7075;BME280;3578;51.568;6.932;2023-05-21T02:05:13;53717.06;;;-144.14;98.31
7075;BME280;3578;51.568;6.932;2023-05-21T02:07:40;53707.03;;;-144.14;98.39
7075;BME280;3578;51.568;6.932;2023-05-21T02:10:10;53695.00;;;-144.14;98.48
7075;BME280;3578;51.568;6.932;2023-05-21T02:12:38;53674.97;;;-144.14;98.28
7075;BME280;3578;51.568;6.932;2023-05-21T02:15:06;53642.91;;;-144.14;98.26
7075;BME280;3578;51.568;6.932;2023-05-21T02:17:33;53652.91;;;-144.14;98.06
7075;BME280;3578;51.568;6.932;2023-05-21T02:20:01;53634.88;;;-144.14;97.87
7075;BME280;3578;51.568;6.932;2023-05-21T02:22:36;53606.81;;;-144.14;97.81
7075;BME280;3578;51.568;6.932;2023-05-21T02:25:04;53652.91;;;-144.14;97.36
7075;BME280;3578;51.568;6.932;2023-05-21T02:27:33;53697.00;;;-144.14;96.87
7075;BME280;3578;51.568;6.932;2023-05-21T02:30:01;53687.00;;;-144.14;96.92
7075;BME280;3578;51.568;6.932;2023-05-21T02:32:29;53676.97;;;-144.14;97.19
7075;BME280;3578;51.568;6.932;2023-05-21T02:34:57;53650.91;;;-144.14;97.21
7075;BME280;3578;51.568;6.932;2023-05-21T02:37:24;53662.94;;;-144.14;97.17
7075;BME280;3578;51.568;6.932;2023-05-21T02:39:52;53707.03;;;-144.14;96.89
7075;BME280;3578;51.568;6.932;2023-05-21T02:42:20;53713.06;;;-144.14;96.81
7075;BME280;3578;51.568;6.932;2023-05-21T02:44:48;53650.91;;;-144.14;96.78
7075;BME280;3578;51.568;6.932;2023-05-21T02:47:15;53656.94;;;-144.14;96.68
7075;BME280;3578;51.568;6.932;2023-05-21T02:49:42;53662.94;;;-144.14;96.73
7075;BME280;3578;51.568;6.932;2023-05-21T02:52:09;53691.00;;;-144.14;96.91
7075;BME280;3578;51.568;6.932;2023-05-21T02:54:36;53632.88;;;-144.14;97.34
7075;BME280;3578;51.568;6.932;2023-05-21T02:57:04;53624.84;;;-144.14;97.17
7075;BME280;3578;51.568;6.932;2023-05-21T02:59:31;53634.88;;;-144.14;97.00
7075;BME280;3578;51.568;6.932;2023-05-21T03:01:59;53622.84;;;-144.14;97.04
7075;BME280;3578;51.568;6.932;2023-05-21T03:04:26;53590.78;;;-144.14;97.19
7075;BME280;3578;51.568;6.932;2023-05-21T03:06:53;53566.72;;;-144.14;97.53
7075;BME280;3578;51.568;6.932;2023-05-21T03:09:21;53558.72;;;-144.14;97.72
7075;BME280;3578;51.568;6.932;2023-05-21T03:11:48;53504.59;;;-144.14;97.86
7075;BME280;3578;51.568;6.932;2023-05-21T03:14:15;53510.63;;;-144.14;97.94
7075;BME280;3578;51.568;6.932;2023-05-21T03:16:42;53502.59;;;-144.14;97.86
7075;BME280;3578;51.568;6.932;2023-05-21T03:19:11;53486.56;;;-144.14;97.97
7075;BME280;3578;51.568;6.932;2023-05-21T03:21:38;53510.63;;;-144.14;97.84
7075;BME280;3578;51.568;6.932;2023-05-21T03:24:06;53504.59;;;-144.14;97.84
7075;BME280;3578;51.568;6.932;2023-05-21T03:26:34;53460.50;;;-144.14;98.00
7075;BME280;3578;51.568;6.932;2023-05-21T03:29:01;53474.53;;;-144.14;98.00
7075;BME280;3578;51.568;6.932;2023-05-21T03:31:28;53426.44;;;-144.14;98.21
7075;BME280;3578;51.568;6.932;2023-05-21T03:33:55;53392.38;;;-144.14;98.40
7075;BME280;3578;51.568;6.932;2023-05-21T03:36:23;53372.31;;;-144.14;98.51
7075;BME280;3578;51.568;6.932;2023-05-21T03:38:50;53342.25;;;-144.14;98.56
7075;BME280;3578;51.568;6.932;2023-05-21T03:41:17;53330.25;;;-144.14;98.63
7075;BME280;3578;51.568;6.932;2023-05-21T03:43:44;53250.06;;;-144.14;99.30
7075;BME280;3578;51.568;6.932;2023-05-21T03:46:11;53193.97;;;-144.14;99.64
7075;BME280;3578;51.568;6.932;2023-05-21T03:48:38;53218.00;;;-144.14;99.73
7075;BME280;3578;51.568;6.932;2023-05-21T03:51:05;53157.88;;;-144.14;99.93
7075;BME280;3578;51.568;6.932;2023-05-21T03:53:34;53105.78;;;-144.14;99.86
7075;BME280;3578;51.568;6.932;2023-05-21T03:56:01;53069.72;;;-144.14;99.97
7075;BME280;3578;51.568;6.932;2023-05-21T03:58:29;53063.69;;;-144.14;100.00
7075;BME280;3578;51.568;6.932;2023-05-21T04:00:56;53009.59;;;-144.14;100.00
7075;BME280;3578;51.568;6.932;2023-05-21T04:03:23;52949.47;;;-144.14;100.00
7075;BME280;3578;51.568;6.932;2023-05-21T04:05:50;52883.34;;;-144.14;100.00
7075;BME280;3578;51.568;6.932;2023-05-21T04:08:18;52851.28;;;-144.14;100.00
7075;BME280;3578;51.568;6.932;2023-05-21T04:10:46;52827.22;;;-144.14;100.00
7075;BME280;3578;51.568;6.932;2023-05-21T04:13:13;52753.09;;;-144.14;100.00
7075;BME280;3578;51.568;6.932;2023-05-21T04:15:40;52789.16;;;-144.14;100.00
7075;BME280;3578;51.568;6.932;2023-05-21T04:18:08;52678.94;;;-144.14;100.00
7075;BME280;3578;51.568;6.932;2023-05-21T04:20:35;52672.94;;;-144.14;100.00
7075;BME280;3578;51.568;6.932;2023-05-21T04:23:02;52680.97;;;-144.14;100.00
7075;BME280;3578;51.568;6.932;2023-05-21T04:25:29;52658.91;;;-144.14;100.00
7075;BME280;3578;51.568;6.932;2023-05-21T04:27:57;52682.97;;;-144.14;100.00
7075;BME280;3578;51.568;6.932;2023-05-21T04:30:24;52717.03;;;-144.14;100.00
7075;BME280;3578;51.568;6.932;2023-05-21T04:32:51;52825.22;;;-144.14;99.96
7075;BME280;3578;51.568;6.932;2023-05-21T04:35:19;52861.31;;;-144.14;99.70
7075;BME280;3578;51.568;6.932;2023-05-21T04:37:46;52909.41;;;-144.14;99.46
7075;BME280;3578;51.568;6.932;2023-05-21T04:40:13;52949.47;;;-144.14;99.40
7075;BME280;3578;51.568;6.932;2023-05-21T04:42:43;52937.44;;;-144.14;99.42
7075;BME280;3578;51.568;6.932;2023-05-21T04:45:12;52859.28;;;-144.14;99.92
7075;BME280;3578;51.568;6.932;2023-05-21T04:47:39;52813.22;;;-144.14;100.00
7075;BME280;3578;51.568;6.932;2023-05-21T04:50:07;52817.22;;;-144.14;100.00
7075;BME280;3578;51.568;6.932;2023-05-21T04:52:35;52793.16;;;-144.14;99.95
7075;BME280;3578;51.568;6.932;2023-05-21T04:55:03;52849.28;;;-144.14;99.79
7075;BME280;3578;51.568;6.932;2023-05-21T04:57:30;52855.28;;;-144.14;99.92
7075;BME280;3578;51.568;6.932;2023-05-21T04:59:57;52871.31;;;-144.14;99.53
7075;BME280;3578;51.568;6.932;2023-05-21T05:02:26;52917.41;;;-144.14;99.47
7075;BME280;3578;51.568;6.932;2023-05-21T05:04:53;52907.38;;;-144.14;99.17
7075;BME280;3578;51.568;6.932;2023-05-21T05:07:20;52903.38;;;-144.14;99.26
7075;BME280;3578;51.568;6.932;2023-05-21T05:09:47;52927.44;;;-144.14;99.14
7075;BME280;3578;51.568;6.932;2023-05-21T05:12:14;52987.53;;;-144.14;98.98
7075;BME280;3578;51.568;6.932;2023-05-21T05:14:41;53001.56;;;-144.14;98.44
7075;BME280;3578;51.568;6.932;2023-05-21T05:17:08;53041.66;;;-144.14;98.28
7075;BME280;3578;51.568;6.932;2023-05-21T05:19:36;53199.97;;;-144.14;97.04
7075;BME280;3578;51.568;6.932;2023-05-21T05:22:04;53246.06;;;-144.14;96.86
7075;BME280;3578;51.568;6.932;2023-05-21T05:24:31;53288.16;;;-144.14;96.68
7075;BME280;3578;51.568;6.932;2023-05-21T05:26:58;53290.16;;;-144.14;96.52
7075;BME280;3578;51.568;6.932;2023-05-21T05:29:24;53308.19;;;-144.14;96.73
7075;BME280;3578;51.568;6.932;2023-05-21T05:31:51;53342.25;;;-144.14;96.27
7075;BME280;3578;51.568;6.932;2023-05-21T05:34:18;53366.31;;;-144.14;96.30
7075;BME280;3578;51.568;6.932;2023-05-21T05:36:47;53390.34;;;-144.14;96.21
7075;BME280;3578;51.568;6.932;2023-05-21T05:39:14;53380.34;;;-144.14;95.99
7075;BME280;3578;51.568;6.932;2023-05-21T05:41:41;53384.34;;;-144.14;95.90
7075;BME280;3578;51.568;6.932;2023-05-21T05:44:08;53458.50;;;-144.14;95.63
7075;BME280;3578;51.568;6.932;2023-05-21T05:46:35;53508.59;;;-144.14;95.24
7075;BME280;3578;51.568;6.932;2023-05-21T05:49:02;53506.59;;;-144.14;95.32
7075;BME280;3578;51.568;6.932;2023-05-21T05:51:28;53528.66;;;-144.14;95.09
7075;BME280;3578;51.568;6.932;2023-05-21T05:53:57;53542.69;;;-144.14;94.94
7075;BME280;3578;51.568;6.932;2023-05-21T05:56:24;53532.66;;;-144.14;95.13
7075;BME280;3578;51.568;6.932;2023-05-21T05:58:52;53594.78;;;-144.14;94.62
7075;BME280;3578;51.568;6.932;2023-05-21T06:01:19;53566.72;;;-144.14;94.40
7075;BME280;3578;51.568;6.932;2023-05-21T06:03:47;53628.88;;;-144.14;94.06
7075;BME280;3578;51.568;6.932;2023-05-21T06:06:14;53640.88;;;-144.14;93.65
7075;BME280;3578;51.568;6.932;2023-05-21T06:08:41;53709.03;;;-144.14;92.51
7075;BME280;3578;51.568;6.932;2023-05-21T06:11:10;53707.03;;;-144.14;92.12
7075;BME280;3578;51.568;6.932;2023-05-21T06:13:36;53727.06;;;-144.14;92.37
7075;BME280;3578;51.568;6.932;2023-05-21T06:16:04;53737.09;;;-144.14;93.24
7075;BME280;3578;51.568;6.932;2023-05-21T06:18:32;53749.13;;;-144.14;92.45
7075;BME280;3578;51.568;6.932;2023-05-21T06:20:59;53783.19;;;-144.14;91.98
7075;BME280;3578;51.568;6.932;2023-05-21T06:23:26;53827.31;;;-144.14;91.32
7075;BME280;3578;51.568;6.932;2023-05-21T06:25:53;53787.22;;;-144.14;92.58
7075;BME280;3578;51.568;6.932;2023-05-21T06:28:21;53791.22;;;-144.14;93.18
7075;BME280;3578;51.568;6.932;2023-05-21T06:30:48;53823.28;;;-144.14;91.66
7075;BME280;3578;51.568;6.932;2023-05-21T06:33:15;53903.47;;;-144.14;90.93
7075;BME280;3578;51.568;6.932;2023-05-21T06:35:42;53863.38;;;-144.14;90.88
7075;BME280;3578;51.568;6.932;2023-05-21T06:38:09;53833.31;;;-144.14;91.27
7075;BME280;3578;51.568;6.932;2023-05-21T06:40:36;53803.25;;;-144.14;91.37
7075;BME280;3578;51.568;6.932;2023-05-21T06:43:02;53887.44;;;-144.14;90.20
7075;BME280;3578;51.568;6.932;2023-05-21T06:45:31;53819.28;;;-144.14;90.76
7075;BME280;3578;51.568;6.932;2023-05-21T06:47:58;53823.28;;;-144.14;91.37
7075;BME280;3578;51.568;6.932;2023-05-21T06:50:25;53851.34;;;-144.14;90.71
7075;BME280;3578;51.568;6.932;2023-05-21T06:52:52;53883.44;;;-144.14;91.00
7075;BME280;3578;51.568;6.932;2023-05-21T06:55:19;53935.53;;;-144.14;90.63
7075;BME280;3578;51.568;6.932;2023-05-21T06:57:46;53941.56;;;-144.14;89.99
7075;BME280;3578;51.568;6.932;2023-05-21T07:00:13;53979.63;;;-144.14;90.49
7075;BME280;3578;51.568;6.932;2023-05-21T07:02:42;53995.69;;;-144.14;88.85
7075;BME280;3578;51.568;6.932;2023-05-21T07:05:09;54025.75;;;-144.14;88.58
7075;BME280;3578;51.568;6.932;2023-05-21T07:07:36;54160.06;;;-144.14;87.55
7075;BME280;3578;51.568;6.932;2023-05-21T07:10:04;54300.38;;;-144.14;85.65
7075;BME280;3578;51.568;6.932;2023-05-21T07:12:31;54302.38;;;-144.14;85.41
7075;BME280;3578;51.568;6.932;2023-05-21T07:14:58;54328.44;;;-144.14;85.55
7075;BME280;3578;51.568;6.932;2023-05-21T07:17:25;54290.34;;;-144.14;85.73
7075;BME280;3578;51.568;6.932;2023-05-21T07:19:53;54332.47;;;-144.14;84.00
7075;BME280;3578;51.568;6.932;2023-05-21T07:22:20;54288.34;;;-144.14;86.28
7075;BME280;3578;51.568;6.932;2023-05-21T07:24:47;54320.44;;;-144.14;84.56
7075;BME280;3578;51.568;6.932;2023-05-21T07:27:14;54296.38;;;-144.14;84.67
7075;BME280;3578;51.568;6.932;2023-05-21T07:29:41;54288.34;;;-144.14;85.60
7075;BME280;3578;51.568;6.932;2023-05-21T07:32:08;54356.50;;;-144.14;85.12
7075;BME280;3578;51.568;6.932;2023-05-21T07:34:35;54378.56;;;-144.14;84.15
7075;BME280;3578;51.568;6.932;2023-05-21T07:37:03;54408.63;;;-144.14;85.04
7075;BME280;3578;51.568;6.932;2023-05-21T07:39:30;54520.91;;;-144.14;83.71
7075;BME280;3578;51.568;6.932;2023-05-21T07:41:57;54571.03;;;-144.14;83.01
7075;BME280;3578;51.568;6.932;2023-05-21T07:44:24;54663.25;;;-144.14;81.21
7075;BME280;3578;51.568;6.932;2023-05-21T07:46:51;54689.31;;;-144.14;79.65
7075;BME280;3578;51.568;6.932;2023-05-21T07:49:18;54757.47;;;-144.14;79.35
7075;BME280;3578;51.568;6.932;2023-05-21T07:51:45;54815.63;;;-144.14;77.78
7075;BME280;3578;51.568;6.932;2023-05-21T07:54:13;54897.84;;;-144.14;78.12
7075;BME280;3578;51.568;6.932;2023-05-21T07:56:40;54943.94;;;-144.14;79.84
7075;BME280;3578;51.568;6.932;2023-05-21T07:59:07;55026.16;;;-144.14;73.69
7075;BME280;3578;51.568;6.932;2023-05-21T08:01:34;55074.28;;;-144.14;72.47
7075;BME280;3578;51.568;6.932;2023-05-21T08:04:03;55096.34;;;-144.14;72.86
7075;BME280;3578;51.568;6.932;2023-05-21T08:06:31;55162.50;;;-144.14;74.03
7075;BME280;3578;51.568;6.932;2023-05-21T08:08:59;55140.47;;;-144.14;74.31
7075;BME280;3578;51.568;6.932;2023-05-21T08:11:27;55140.47;;;-144.14;77.81
7075;BME280;3578;51.568;6.932;2023-05-21T08:13:55;55162.50;;;-144.14;74.17
7075;BME280;3578;51.568;6.932;2023-05-21T08:16:22;55138.44;;;-144.14;73.42
7075;BME280;3578;51.568;6.932;2023-05-21T08:18:49;55122.41;;;-144.14;75.04
7075;BME280;3578;51.568;6.932;2023-05-21T08:21:16;55128.44;;;-144.14;74.53
7075;BME280;3578;51.568;6.932;2023-05-21T08:23:43;55142.47;;;-144.14;75.34
7075;BME280;3578;51.568;6.932;2023-05-21T08:26:10;55152.50;;;-144.14;76.29
7075;BME280;3578;51.568;6.932;2023-05-21T08:28:38;55146.47;;;-144.14;78.36
7075;BME280;3578;51.568;6.932;2023-05-21T08:31:05;55194.59;;;-144.14;74.53
7075;BME280;3578;51.568;6.932;2023-05-21T08:33:34;55190.59;;;-144.14;75.18
7075;BME280;3578;51.568;6.932;2023-05-21T08:36:04;55170.53;;;-144.14;73.87
7075;BME280;3578;51.568;6.932;2023-05-21T08:38:31;55190.59;;;-144.14;74.73
7075;BME280;3578;51.568;6.932;2023-05-21T08:40:58;55214.66;;;-144.14;74.42
7075;BME280;3578;51.568;6.932;2023-05-21T08:43:27;55190.59;;;-144.14;72.75
7075;BME280;3578;51.568;6.932;2023-05-21T08:45:56;55178.56;;;-144.14;72.95
7075;BME280;3578;51.568;6.932;2023-05-21T08:48:26;55222.66;;;-144.14;75.45
7075;BME280;3578;51.568;6.932;2023-05-21T08:50:54;55190.59;;;-144.14;74.58
7075;BME280;3578;51.568;6.932;2023-05-21T08:53:22;55240.72;;;-144.14;75.47
7075;BME280;3578;51.568;6.932;2023-05-21T08:55:51;55252.75;;;-144.14;74.94
7075;BME280;3578;51.568;6.932;2023-05-21T08:58:18;55224.69;;;-144.14;75.27
7075;BME280;3578;51.568;6.932;2023-05-21T09:00:46;55266.78;;;-144.14;75.72
7075;BME280;3578;51.568;6.932;2023-05-21T09:03:15;55262.78;;;-144.14;74.60
7075;BME280;3578;51.568;6.932;2023-05-21T09:05:44;55326.94;;;-144.14;75.18
7075;BME280;3578;51.568;6.932;2023-05-21T09:08:15;55246.75;;;-144.14;73.86
7075;BME280;3578;51.568;6.932;2023-05-21T09:10:47;55385.09;;;-144.14;75.02
7075;BME280;3578;51.568;6.932;2023-05-21T09:13:16;55371.06;;;-144.14;72.75
7075;BME280;3578;51.568;6.932;2023-05-21T09:15:43;55244.72;;;-144.14;74.17
7075;BME280;3578;51.568;6.932;2023-05-21T09:18:11;55397.13;;;-144.14;74.67
7075;BME280;3578;51.568;6.932;2023-05-21T09:20:40;55539.53;;;-144.14;71.59
7075;BME280;3578;51.568;6.932;2023-05-21T09:23:08;55619.75;;;-144.14;70.14
7075;BME280;3578;51.568;6.932;2023-05-21T09:25:37;55651.81;;;-144.14;66.57
7075;BME280;3578;51.568;6.932;2023-05-21T09:28:11;55687.94;;;-144.14;67.19
7075;BME280;3578;51.568;6.932;2023-05-21T09:30:43;55764.13;;;-144.14;65.90
7075;BME280;3578;51.568;6.932;2023-05-21T09:33:11;55800.25;;;-144.14;65.89
7075;BME280;3578;51.568;6.932;2023-05-21T09:35:45;55848.38;;;-144.14;65.23
7075;BME280;3578;51.568;6.932;2023-05-21T09:38:12;55868.44;;;-144.14;67.86
7075;BME280;3578;51.568;6.932;2023-05-21T09:40:43;55938.63;;;-144.14;72.91
7075;BME280;3578;51.568;6.932;2023-05-21T09:43:13;55836.34;;;-144.14;66.88
7075;BME280;3578;51.568;6.932;2023-05-21T09:45:50;55910.53;;;-144.14;65.15
7075;BME280;3578;51.568;6.932;2023-05-21T09:48:33;55894.50;;;-144.14;65.00
7075;BME280;3578;51.568;6.932;2023-05-21T09:51:10;55858.41;;;-144.14;63.85
7075;BME280;3578;51.568;6.932;2023-05-21T09:53:49;55796.22;;;-144.14;65.72
7075;BME280;3578;51.568;6.932;2023-05-21T09:56:20;55820.28;;;-144.14;69.13
7075;BME280;3578;51.568;6.932;2023-05-21T09:58:51;55900.53;;;-144.14;67.24
7075;BME280;3578;51.568;6.932;2023-05-21T10:01:21;55872.44;;;-144.14;64.36
7075;BME280;3578;51.568;6.932;2023-05-21T10:03:53;55852.38;;;-144.14;63.76
7075;BME280;3578;51.568;6.932;2023-05-21T10:06:23;55860.41;;;-144.14;67.19
7075;BME280;3578;51.568;6.932;2023-05-21T10:08:53;55772.16;;;-144.14;69.57
7075;BME280;3578;51.568;6.932;2023-05-21T10:11:22;55842.34;;;-144.14;66.17
7075;BME280;3578;51.568;6.932;2023-05-21T10:13:57;55828.31;;;-144.14;67.16
7075;BME280;3578;51.568;6.932;2023-05-21T10:16:24;55886.47;;;-144.14;67.36
7075;BME280;3578;51.568;6.932;2023-05-21T10:18:52;55960.69;;;-144.14;70.83
7075;BME280;3578;51.568;6.932;2023-05-21T10:21:22;55944.66;;;-144.14;65.73
7075;BME280;3578;51.568;6.932;2023-05-21T10:23:50;56012.84;;;-144.14;67.58
7075;BME280;3578;51.568;6.932;2023-05-21T10:26:19;55936.63;;;-144.14;66.96
7075;BME280;3578;51.568;6.932;2023-05-21T10:28:48;55980.75;;;-144.14;68.22
7075;BME280;3578;51.568;6.932;2023-05-21T10:31:17;56030.88;;;-144.14;67.57
7075;BME280;3578;51.568;6.932;2023-05-21T10:33:44;56119.16;;;-144.14;70.65
7075;BME280;3578;51.568;6.932;2023-05-21T10:36:11;56109.13;;;-144.14;68.06
7075;BME280;3578;51.568;6.932;2023-05-21T10:38:43;56069.00;;;-144.14;64.41
7075;BME280;3578;51.568;6.932;2023-05-21T10:41:11;56073.00;;;-144.14;66.93
7075;BME280;3578;51.568;6.932;2023-05-21T10:43:48;56109.13;;;-144.14;68.46
7075;BME280;3578;51.568;6.932;2023-05-21T10:46:50;56157.25;;;-144.14;65.79
7075;BME280;3578;51.568;6.932;2023-05-21T10:49:54;56177.31;;;-144.14;63.60
7075;BME280;3578;51.568;6.932;2023-05-21T10:52:46;56205.41;;;-144.14;62.42
7075;BME280;3578;51.568;6.932;2023-05-21T10:55:37;56241.50;;;-144.14;65.33
7075;BME280;3578;51.568;6.932;2023-05-21T10:59:01;56289.63;;;-144.14;64.90
7075;BME280;3578;51.568;6.932;2023-05-21T11:01:36;56281.63;;;-144.14;60.86
7075;BME280;3578;51.568;6.932;2023-05-21T11:04:05;56267.56;;;-144.14;64.90
7075;BME280;3578;51.568;6.932;2023-05-21T11:06:32;56121.16;;;-144.14;63.15
7075;BME280;3578;51.568;6.932;2023-05-21T11:09:01;56101.09;;;-144.14;65.48
7075;BME280;3578;51.568;6.932;2023-05-21T11:11:43;56113.13;;;-144.14;65.63
7075;BME280;3578;51.568;6.932;2023-05-21T11:14:28;56097.09;;;-144.14;67.64
7075;BME280;3578;51.568;6.932;2023-05-21T11:16:56;56143.22;;;-144.14;69.33
7075;BME280;3578;51.568;6.932;2023-05-21T11:19:36;56089.06;;;-144.14;69.32
7075;BME280;3578;51.568;6.932;2023-05-21T11:22:08;56077.03;;;-144.14;69.73
7075;BME280;3578;51.568;6.932;2023-05-21T11:24:40;56012.84;;;-144.14;68.93
7075;BME280;3578;51.568;6.932;2023-05-21T11:27:09;56079.03;;;-144.14;66.23
7075;BME280;3578;51.568;6.932;2023-05-21T11:29:42;56109.13;;;-144.14;67.57
7075;BME280;3578;51.568;6.932;2023-05-21T11:32:12;56117.13;;;-144.14;68.81
7075;BME280;3578;51.568;6.932;2023-05-21T11:34:44;56165.28;;;-144.14;70.76
7075;BME280;3578;51.568;6.932;2023-05-21T11:37:31;56191.34;;;-144.14;68.89
7075;BME280;3578;51.568;6.932;2023-05-21T11:40:27;56219.44;;;-144.14;68.32
7075;BME280;3578;51.568;6.932;2023-05-21T11:42:56;56237.50;;;-144.14;70.00
7075;BME280;3578;51.568;6.932;2023-05-21T11:45:28;56271.59;;;-144.14;66.70
7075;BME280;3578;51.568;6.932;2023-05-21T11:47:56;56325.75;;;-144.14;64.98
7075;BME280;3578;51.568;6.932;2023-05-21T11:50:24;56377.91;;;-144.14;66.63
7075;BME280;3578;51.568;6.932;2023-05-21T11:52:51;56329.75;;;-144.14;65.67
7075;BME280;3578;51.568;6.932;2023-05-21T11:55:22;56428.06;;;-144.14;67.76
7075;BME280;3578;51.568;6.932;2023-05-21T11:57:52;56490.22;;;-144.14;64.26
7075;BME280;3578;51.568;6.932;2023-05-21T12:00:22;56550.41;;;-144.14;62.29
7075;BME280;3578;51.568;6.932;2023-05-21T12:02:51;56568.47;;;-144.14;59.12
7075;BME280;3578;51.568;6.932;2023-05-21T12:05:20;56552.41;;;-144.14;59.40
7075;BME280;3578;51.568;6.932;2023-05-21T12:07:47;56700.88;;;-144.14;62.53
7075;BME280;3578;51.568;6.932;2023-05-21T12:10:15;56688.84;;;-144.14;58.31
7075;BME280;3578;51.568;6.932;2023-05-21T12:12:42;56686.84;;;-144.14;60.66
7075;BME280;3578;51.568;6.932;2023-05-21T12:15:10;56636.69;;;-144.14;61.35
7075;BME280;3578;51.568;6.932;2023-05-21T12:17:39;56592.53;;;-144.14;59.90
7075;BME280;3578;51.568;6.932;2023-05-21T12:20:07;56586.53;;;-144.14;64.28
7075;BME280;3578;51.568;6.932;2023-05-21T12:22:40;56686.84;;;-144.14;64.26
7075;BME280;3578;51.568;6.932;2023-05-21T12:25:09;56791.16;;;-144.14;64.12
7075;BME280;3578;51.568;6.932;2023-05-21T12:27:37;56785.13;;;-144.14;58.41
7075;BME280;3578;51.568;6.932;2023-05-21T12:30:05;56915.53;;;-144.14;59.79
7075;BME280;3578;51.568;6.932;2023-05-21T12:32:33;56925.56;;;-144.14;60.72
7075;BME280;3578;51.568;6.932;2023-05-21T12:35:01;56915.53;;;-144.14;57.32
7075;BME280;3578;51.568;6.932;2023-05-21T12:37:29;56959.69;;;-144.14;59.00
7075;BME280;3578;51.568;6.932;2023-05-21T12:40:00;56923.56;;;-144.14;56.73
7075;BME280;3578;51.568;6.932;2023-05-21T12:42:30;56915.53;;;-144.14;55.93
7075;BME280;3578;51.568;6.932;2023-05-21T12:45:00;56965.69;;;-144.14;56.24
7075;BME280;3578;51.568;6.932;2023-05-21T12:47:31;57074.03;;;-144.14;57.08
7075;BME280;3578;51.568;6.932;2023-05-21T12:50:00;57118.19;;;-144.14;58.50
7075;BME280;3578;51.568;6.932;2023-05-21T12:52:28;57112.16;;;-144.14;55.21
7075;BME280;3578;51.568;6.932;2023-05-21T12:54:56;57156.28;;;-144.14;57.65
7075;BME280;3578;51.568;6.932;2023-05-21T12:57:26;57096.09;;;-144.14;55.92
7075;BME280;3578;51.568;6.932;2023-05-21T12:59:56;57150.28;;;-144.14;55.75
7075;BME280;3578;51.568;6.932;2023-05-21T13:02:25;57178.38;;;-144.14;62.56
7075;BME280;3578;51.568;6.932;2023-05-21T13:04:57;57156.28;;;-144.14;57.82
7075;BME280;3578;51.568;6.932;2023-05-21T13:07:28;57128.22;;;-144.14;56.04
7075;BME280;3578;51.568;6.932;2023-05-21T13:09:56;57124.19;;;-144.14;56.99